createdAt,value
2023-03-26T00:01:01.938Z,95480.44
2023-03-26T00:03:28.548Z,95472.00
2023-03-26T00:06:09.949Z,95500.59
2023-03-26T00:08:38.291Z,95499.53
2023-03-26T00:11:06.636Z,95491.63
2023-03-26T00:13:33.705Z,95490.63
2023-03-26T00:16:01.234Z,95482.28
2023-03-26T00:18:30.759Z,95484.91
2023-03-26T00:21:03.466Z,95476.84
2023-03-26T00:23:32.019Z,95495.38
2023-03-26T00:25:58.574Z,95477.59
2023-03-26T00:28:26.322Z,95484.88
2023-03-26T00:31:01.476Z,95480.44
2023-03-26T00:33:28.843Z,95488.59
2023-03-26T00:36:01.924Z,95492.78
2023-03-26T00:38:30.905Z,95472.38
2023-03-26T00:41:05.850Z,95473.22
2023-03-26T00:43:35.374Z,95466.66
2023-03-26T00:46:03.081Z,95483.69
2023-03-26T00:48:44.016Z,95478.94
2023-03-26T00:51:12.349Z,95458.00
2023-03-26T00:53:41.177Z,95446.53
2023-03-26T00:56:08.823Z,95476.88
2023-03-26T00:58:35.711Z,95464.84
2023-03-26T01:01:05.663Z,95467.69
2023-03-26T01:03:34.939Z,95448.03
2023-03-26T01:06:11.236Z,95463.78
2023-03-26T01:08:48.121Z,95481.09
2023-03-26T01:11:20.586Z,95478.47
2023-03-26T01:13:50.939Z,95466.69
2023-03-26T01:16:41.598Z,95481.34
2023-03-26T01:19:30.508Z,95474.78
2023-03-26T01:21:58.864Z,95474.25
2023-03-26T01:24:25.361Z,95475.06
2023-03-26T01:27:01.461Z,95478.72
2023-03-26T01:29:54.048Z,95473.50
2023-03-26T01:32:55.644Z,95460.59
2023-03-26T01:35:55.334Z,95463.53
2023-03-26T01:38:53.219Z,95462.22
2023-03-26T01:41:24.987Z,95458.56
2023-03-26T01:44:00.566Z,95442.78
2023-03-26T01:46:28.738Z,95448.03
2023-03-26T01:48:55.857Z,95431.31
2023-03-26T01:51:31.504Z,95438.13
2023-03-26T01:53:58.428Z,95429.78
2023-03-26T01:57:06.127Z,95446.00
2023-03-26T01:59:50.832Z,95444.19
2023-03-26T02:02:35.658Z,95438.94
2023-03-26T02:05:08.334Z,95432.69
2023-03-26T02:07:41.984Z,95432.69
2023-03-26T02:10:17.419Z,95414.63
2023-03-26T02:12:45.257Z,95408.88
2023-03-26T02:15:12.583Z,95411.75
2023-03-26T02:17:40.566Z,95422.47
2023-03-26T02:20:14.179Z,95411.22
2023-03-26T02:22:45.951Z,95424.06
2023-03-26T02:25:21.282Z,95426.69
2023-03-26T02:27:52.589Z,95415.72
2023-03-26T02:30:25.646Z,95396.34
2023-03-26T02:32:59.009Z,95412.56
2023-03-26T02:35:29.412Z,95410.75
2023-03-26T02:37:59.124Z,95404.72
2023-03-26T02:40:26.490Z,95392.69
2023-03-26T02:42:53.234Z,95395.81
2023-03-26T02:45:23.122Z,95396.31
2023-03-26T02:48:21.788Z,95389.53
2023-03-26T02:51:14.475Z,95398.94
2023-03-26T02:53:59.345Z,95384.81
2023-03-26T02:56:48.960Z,95386.13
2023-03-26T02:59:35.899Z,95379.09
2023-03-26T03:02:25.719Z,95371.69
2023-03-26T03:05:01.335Z,95359.16
2023-03-26T03:07:31.835Z,95356.25
2023-03-26T03:10:02.352Z,95357.56
2023-03-26T03:13:01.407Z,95349.72
2023-03-26T03:15:31.089Z,95346.84
2023-03-26T03:17:57.599Z,95340.28
2023-03-26T03:20:26.514Z,95325.91
2023-03-26T03:22:53.133Z,95274.13
2023-03-26T03:25:22.214Z,95319.88
2023-03-26T03:27:50.213Z,95315.16
2023-03-26T03:30:17.033Z,95322.50
2023-03-26T03:32:46.425Z,95314.41
2023-03-26T03:35:16.935Z,95321.97
2023-03-26T03:37:48.723Z,95308.91
2023-03-26T03:40:15.300Z,95324.09
2023-03-26T03:42:42.826Z,95306.81
2023-03-26T03:45:10.828Z,95310.47
2023-03-26T03:47:59.478Z,95299.75
2023-03-26T03:50:35.656Z,95316.50
2023-03-26T03:53:22.024Z,95306.03
2023-03-26T03:55:54.257Z,95317.03
2023-03-26T03:58:28.125Z,95318.63
2023-03-26T04:01:00.775Z,95309.44
2023-03-26T04:04:00.031Z,95314.16
2023-03-26T04:06:39.445Z,95307.63
2023-03-26T04:09:07.684Z,95307.38
2023-03-26T04:11:35.422Z,95285.38
2023-03-26T04:14:15.267Z,95287.44
2023-03-26T04:16:56.532Z,95264.66
2023-03-26T04:19:24.729Z,95285.03
2023-03-26T04:21:51.375Z,95279.50
2023-03-26T04:24:22.362Z,95279.19
2023-03-26T04:27:25.554Z,95260.66
2023-03-26T04:29:52.254Z,95265.13
2023-03-26T04:32:34.278Z,95275.06
2023-03-26T04:35:04.171Z,95257.84
2023-03-26T04:37:34.545Z,95254.19
2023-03-26T04:40:21.950Z,95269.88
2023-03-26T04:43:13.112Z,95250.81
2023-03-26T04:45:55.023Z,95265.44
2023-03-26T04:48:24.685Z,95242.19
2023-03-26T04:50:51.328Z,95239.03
2023-03-26T04:53:24.185Z,95230.66
2023-03-26T04:56:34.676Z,95234.06
2023-03-26T04:59:20.308Z,95252.09
2023-03-26T05:01:48.133Z,95241.13
2023-03-26T05:04:16.675Z,95234.81
2023-03-26T05:06:44.012Z,95208.16
2023-03-26T05:09:26.391Z,95243.47
2023-03-26T05:12:28.036Z,95213.88
2023-03-26T05:15:01.456Z,95230.34
2023-03-26T05:17:44.967Z,95202.63
2023-03-26T05:20:23.471Z,95222.47
2023-03-26T05:22:51.192Z,95200.75
2023-03-26T05:25:25.647Z,95184.81
2023-03-26T05:27:53.295Z,95216.25
2023-03-26T05:30:21.958Z,95213.31
2023-03-26T05:32:53.892Z,95207.31
2023-03-26T05:35:25.530Z,95201.31
2023-03-26T05:37:52.359Z,95208.34
2023-03-26T05:40:22.779Z,95167.06
2023-03-26T05:42:56.207Z,95185.31
2023-03-26T05:45:33.453Z,95166.50
2023-03-26T05:48:08.501Z,95169.06
2023-03-26T05:50:35.355Z,95176.88
2023-03-26T05:53:01.966Z,95177.03
2023-03-26T05:55:50.575Z,95162.06
2023-03-26T05:58:37.848Z,95175.56
2023-03-26T06:01:25.536Z,95153.28
2023-03-26T06:04:28.506Z,95145.88
2023-03-26T06:07:16.810Z,95146.31
2023-03-26T06:09:47.523Z,95157.78
2023-03-26T06:12:14.934Z,95161.91
2023-03-26T06:14:42.918Z,95135.75
2023-03-26T06:17:18.089Z,95093.75
2023-03-26T06:20:09.292Z,95143.25
2023-03-26T06:22:42.422Z,95161.69
2023-03-26T06:25:31.719Z,95135.34
2023-03-26T06:28:13.755Z,95137.22
2023-03-26T06:30:51.409Z,95129.06
2023-03-26T06:33:31.230Z,95150.72
2023-03-26T06:35:59.131Z,95157.88
2023-03-26T06:38:26.606Z,95129.63
2023-03-26T06:40:53.694Z,95117.75
2023-03-26T06:43:26.273Z,95127.50
2023-03-26T06:46:11.794Z,95138.72
2023-03-26T06:48:39.377Z,95141.78
2023-03-26T06:51:24.426Z,95142.28
2023-03-26T06:54:18.295Z,95145.63
2023-03-26T06:56:47.634Z,95112.06
2023-03-26T06:59:29.116Z,95136.56
2023-03-26T07:02:14.512Z,95120.56
2023-03-26T07:04:59.855Z,95115.69
2023-03-26T07:07:45.882Z,95108.94
2023-03-26T07:10:22.253Z,95114.56
2023-03-26T07:13:03.711Z,95103.22
2023-03-26T07:15:49.457Z,95102.41
2023-03-26T07:18:39.486Z,95057.94
2023-03-26T07:21:09.360Z,95098.72
2023-03-26T07:23:36.679Z,95105.75
2023-03-26T07:26:40.162Z,95096.09
2023-03-26T07:29:51.072Z,95093.97
2023-03-26T07:32:55.594Z,95086.78
2023-03-26T07:35:51.536Z,95076.78
2023-03-26T07:39:10.632Z,95050.28
2023-03-26T07:41:48.653Z,95065.56
2023-03-26T07:44:44.933Z,95053.88
2023-03-26T07:47:37.515Z,95038.47
2023-03-26T07:50:22.228Z,95025.84
2023-03-26T07:52:58.052Z,95012.94
2023-03-26T07:55:33.968Z,95007.28
2023-03-26T07:58:46.272Z,94986.41
2023-03-26T08:02:11.932Z,95006.28
2023-03-26T08:05:20.827Z,94980.63
2023-03-26T08:08:16.518Z,94979.53
2023-03-26T08:11:07.358Z,94985.66
2023-03-26T08:14:19.954Z,94976.44
2023-03-26T08:16:56.108Z,94957.13
2023-03-26T08:20:07.761Z,94965.56
2023-03-26T08:22:41.032Z,94934.06
2023-03-26T08:25:33.634Z,94975.09
2023-03-26T08:28:06.691Z,94973.72
2023-03-26T08:30:33.541Z,94939.81
2023-03-26T08:33:14.511Z,94943.72
2023-03-26T08:35:42.469Z,94925.97
2023-03-26T08:38:10.698Z,94933.00
2023-03-26T08:40:59.201Z,94948.47
2023-03-26T08:43:43.926Z,94948.63
2023-03-26T08:46:42.158Z,94940.72
2023-03-26T08:49:29.077Z,94955.75
2023-03-26T08:52:33.971Z,94961.38
2023-03-26T08:55:12.550Z,94944.81
2023-03-26T08:58:10.017Z,94943.22
2023-03-26T09:01:12.218Z,94952.88
2023-03-26T09:04:03.569Z,94959.47
2023-03-26T09:06:42.256Z,94952.19
2023-03-26T09:09:39.379Z,94941.19
2023-03-26T09:12:31.235Z,94944.09
2023-03-26T09:15:26.276Z,94928.41
2023-03-26T09:18:34.892Z,94945.41
2023-03-26T09:21:22.589Z,94918.31
2023-03-26T09:24:27.699Z,94927.03
2023-03-26T09:27:00.489Z,94917.59
2023-03-26T09:30:24.364Z,94887.94
2023-03-26T09:33:32.078Z,94910.13
2023-03-26T09:36:36.275Z,94909.59
2023-03-26T09:39:13.712Z,94911.91
2023-03-26T09:42:03.671Z,94923.25
2023-03-26T09:44:58.279Z,94929.31
2023-03-26T09:47:56.738Z,94929.31
2023-03-26T09:50:42.341Z,94902.72
2023-03-26T09:53:39.194Z,94910.50
2023-03-26T09:56:15.571Z,94901.41
2023-03-26T09:58:56.922Z,94853.66
2023-03-26T10:01:52.178Z,94901.41
2023-03-26T10:04:25.036Z,94894.84
2023-03-26T10:07:05.710Z,94886.66
2023-03-26T10:10:02.047Z,94872.88
2023-03-26T10:12:34.608Z,94876.97
2023-03-26T10:15:05.182Z,94870.16
2023-03-26T10:17:46.451Z,94868.81
2023-03-26T10:20:41.524Z,94828.47
2023-03-26T10:23:33.727Z,94875.47
2023-03-26T10:26:04.298Z,94881.13
2023-03-26T10:28:53.230Z,94869.06
2023-03-26T10:31:52.572Z,94879.91
2023-03-26T10:34:53.261Z,94882.44
2023-03-26T10:37:38.564Z,94874.66
2023-03-26T10:40:14.152Z,94883.97
2023-03-26T10:42:54.021Z,94875.19
2023-03-26T10:45:35.770Z,94890.78
2023-03-26T10:48:10.928Z,94884.25
2023-03-26T10:51:02.339Z,94905.09
2023-03-26T10:53:47.071Z,94895.94
2023-03-26T10:56:36.808Z,94902.06
2023-03-26T10:59:08.341Z,94839.66
2023-03-26T11:01:51.162Z,94876.78
2023-03-26T11:04:44.052Z,94872.56
2023-03-26T11:07:30.665Z,94766.56
2023-03-26T11:10:12.462Z,94848.56
2023-03-26T11:12:54.978Z,94812.13
2023-03-26T11:15:36.062Z,94781.84
2023-03-26T11:18:32.310Z,94808.72
2023-03-26T11:21:19.950Z,94842.34
2023-03-26T11:24:04.722Z,94831.91
2023-03-26T11:26:55.685Z,94855.38
2023-03-26T11:29:41.923Z,94838.16
2023-03-26T11:32:14.063Z,94799.13
2023-03-26T11:35:40.923Z,94844.00
2023-03-26T11:38:41.933Z,94853.31
2023-03-26T11:41:23.322Z,94828.72
2023-03-26T11:44:21.649Z,94803.22
2023-03-26T11:46:52.695Z,94814.88
2023-03-26T11:49:22.078Z,94784.91
2023-03-26T11:51:48.931Z,94827.81
2023-03-26T11:54:16.365Z,94839.56
2023-03-26T11:57:04.863Z,94842.47
2023-03-26T11:59:57.974Z,94827.81
2023-03-26T12:02:24.971Z,94826.34
2023-03-26T12:04:55.331Z,94785.59
2023-03-26T12:07:33.593Z,94759.63
2023-03-26T12:10:20.152Z,94823.50
2023-03-26T12:12:47.933Z,94809.91
2023-03-26T12:15:16.602Z,94814.59
2023-03-26T12:17:43.223Z,94806.44
2023-03-26T12:20:32.485Z,94805.63
2023-03-26T12:23:01.626Z,94781.88
2023-03-26T12:25:33.982Z,94812.63
2023-03-26T12:28:19.850Z,94810.13
2023-03-26T12:31:02.865Z,94797.94
2023-03-26T12:33:34.814Z,94801.25
2023-03-26T12:36:27.840Z,94798.59
2023-03-26T12:39:16.890Z,94787.38
2023-03-26T12:43:51.346Z,94756.63
2023-03-26T12:44:46.166Z,94788.22
2023-03-26T12:47:58.789Z,94789.91
2023-03-26T12:50:17.090Z,94796.47
2023-03-26T12:53:06.135Z,94786.66
2023-03-26T12:56:00.258Z,94711.91
2023-03-26T12:58:33.544Z,94799.81
2023-03-26T13:01:15.749Z,94798.97
2023-03-26T13:04:17.174Z,94763.16
2023-03-26T13:07:00.887Z,94781.16
2023-03-26T13:09:45.623Z,94767.63
2023-03-26T13:13:00.796Z,94787.13
2023-03-26T13:15:36.919Z,94776.84
2023-03-26T13:18:30.346Z,94749.19
2023-03-26T13:21:12.666Z,94771.28
2023-03-26T13:23:56.215Z,94712.38
2023-03-26T13:26:42.355Z,94754.22
2023-03-26T13:29:26.045Z,94771.38
2023-03-26T13:32:05.741Z,94766.50
2023-03-26T13:34:54.483Z,94766.97
2023-03-26T13:37:36.791Z,94758.94
2023-03-26T13:40:15.928Z,94767.28
2023-03-26T13:43:16.147Z,94769.28
2023-03-26T13:46:09.792Z,94723.00
2023-03-26T13:48:55.342Z,94738.44
2023-03-26T13:51:29.024Z,94729.50
2023-03-26T13:54:19.849Z,94757.09
2023-03-26T13:56:55.308Z,94757.03
2023-03-26T13:59:41.741Z,94749.50
2023-03-26T14:02:30.734Z,94752.72
2023-03-26T14:05:04.231Z,94798.69
2023-03-26T14:07:44.153Z,94744.06
2023-03-26T14:10:19.077Z,94775.75
2023-03-26T14:12:51.767Z,94710.09
2023-03-26T14:15:32.810Z,94750.72
2023-03-26T14:18:29.357Z,94735.25
2023-03-26T14:21:29.173Z,94731.44
2023-03-26T14:24:13.329Z,94717.97
2023-03-26T14:26:41.991Z,94729.81
2023-03-26T14:29:57.070Z,94737.34
2023-03-26T14:32:40.946Z,94730.00
2023-03-26T14:35:17.167Z,94725.56
2023-03-26T14:37:58.990Z,94713.88
2023-03-26T14:40:45.946Z,94712.63
2023-03-26T14:43:41.890Z,94700.75
2023-03-26T14:46:32.593Z,94691.41
2023-03-26T14:49:35.826Z,94689.09
2023-03-26T14:52:15.996Z,94675.56
2023-03-26T14:54:46.619Z,94669.72
2023-03-26T14:57:50.336Z,94685.09
2023-03-26T15:00:34.821Z,94691.91
2023-03-26T15:03:40.070Z,94696.03
2023-03-26T15:06:26.328Z,94663.81
2023-03-26T15:09:14.944Z,94689.47
2023-03-26T15:12:13.218Z,94693.19
2023-03-26T15:14:59.144Z,94686.56
2023-03-26T15:17:48.937Z,94655.66
2023-03-26T15:20:53.630Z,94664.47
2023-03-26T15:23:38.968Z,94663.00
2023-03-26T15:26:27.504Z,94653.56
2023-03-26T15:29:35.560Z,94663.28
2023-03-26T15:32:40.838Z,94661.59
2023-03-26T15:35:30.588Z,94660.16
2023-03-26T15:38:03.494Z,94646.22
2023-03-26T15:40:51.823Z,94638.06
2023-03-26T15:43:21.515Z,94639.41
2023-03-26T15:45:58.627Z,94625.22
2023-03-26T15:48:36.617Z,94636.94
2023-03-26T15:51:15.362Z,94651.41
2023-03-26T15:54:09.082Z,94653.09
2023-03-26T15:57:03.433Z,94667.47
2023-03-26T15:59:56.447Z,94659.81
2023-03-26T16:02:44.572Z,94641.31
2023-03-26T16:05:32.168Z,94612.25
2023-03-26T16:08:26.107Z,94631.69
2023-03-26T16:11:00.506Z,94651.94
2023-03-26T16:14:10.763Z,94657.44
2023-03-26T16:16:57.444Z,94661.94
2023-03-26T16:19:46.095Z,94648.31
2023-03-26T16:22:35.502Z,94647.59
2023-03-26T16:25:32.679Z,94625.34
2023-03-26T16:28:30.614Z,94643.09
2023-03-26T16:31:36.171Z,94640.38
2023-03-26T16:34:02.039Z,94639.63
2023-03-26T16:36:36.629Z,94637.78
2023-03-26T16:39:06.142Z,94628.34
2023-03-26T16:41:33.983Z,94610.88
2023-03-26T16:44:10.488Z,94607.00
2023-03-26T16:46:42.212Z,94601.69
2023-03-26T16:49:36.610Z,94604.84
2023-03-26T16:52:21.444Z,94608.84
2023-03-26T16:54:56.053Z,94601.09
2023-03-26T16:57:27.922Z,94599.13
2023-03-26T17:00:05.272Z,94618.25
2023-03-26T17:02:56.720Z,94603.78
2023-03-26T17:05:43.867Z,94626.53
2023-03-26T17:08:37.153Z,94621.03
2023-03-26T17:11:21.822Z,94576.31
2023-03-26T17:14:14.599Z,94618.06
2023-03-26T17:16:49.428Z,94610.09
2023-03-26T17:19:34.695Z,94613.81
2023-03-26T17:22:11.121Z,94619.94
2023-03-26T17:25:23.330Z,94606.44
2023-03-26T17:28:24.443Z,94611.88
2023-03-26T17:31:21.098Z,94619.00
2023-03-26T17:33:47.931Z,94618.41
2023-03-26T17:36:24.058Z,94619.47
2023-03-26T17:38:50.575Z,94637.06
2023-03-26T17:42:10.390Z,94651.78
2023-03-26T17:44:59.147Z,94659.56
2023-03-26T17:47:32.729Z,94669.31
2023-03-26T17:50:15.880Z,94672.63
2023-03-26T17:52:54.342Z,94686.66
2023-03-26T17:55:27.689Z,94690.16
2023-03-26T17:57:58.321Z,94710.47
2023-03-26T18:00:43.598Z,94704.75
2023-03-26T18:03:33.995Z,94700.75
2023-03-26T18:06:12.708Z,94689.41
2023-03-26T18:09:15.650Z,94705.84
2023-03-26T18:12:16.217Z,94712.16
2023-03-26T18:15:02.698Z,94711.25
2023-03-26T18:17:39.776Z,94698.69
2023-03-26T18:20:07.102Z,94715.38
2023-03-26T18:22:33.931Z,94706.28
2023-03-26T18:25:02.053Z,94720.44
2023-03-26T18:27:40.814Z,94709.28
2023-03-26T18:30:19.228Z,94726.69
2023-03-26T18:32:52.323Z,94712.06
2023-03-26T18:35:21.358Z,94714.03
2023-03-26T18:37:53.308Z,94714.59
2023-03-26T18:40:22.405Z,94719.06
2023-03-26T18:42:55.730Z,94725.78
2023-03-26T18:45:34.215Z,94725.91
2023-03-26T18:48:19.017Z,94722.44
2023-03-26T18:50:47.513Z,94704.19
2023-03-26T18:53:18.389Z,94709.78
2023-03-26T18:55:44.823Z,94700.50
2023-03-26T18:58:23.727Z,94712.25
2023-03-26T19:01:00.813Z,94712.38
2023-03-26T19:03:31.967Z,94699.38
2023-03-26T19:05:59.499Z,94692.91
2023-03-26T19:08:26.085Z,94698.34
2023-03-26T19:10:54.455Z,94707.34
2023-03-26T19:13:22.603Z,94722.16
2023-03-26T19:15:51.800Z,94696.03
2023-03-26T19:18:28.336Z,94690.78
2023-03-26T19:20:58.503Z,94700.69
2023-03-26T19:23:33.017Z,94702.75
2023-03-26T19:26:02.443Z,94697.59
2023-03-26T19:29:05.439Z,94690.50
2023-03-26T19:31:33.918Z,94709.13
2023-03-26T19:34:14.777Z,94708.06
2023-03-26T19:36:58.001Z,94706.69
2023-03-26T19:39:37.259Z,94716.50
2023-03-26T19:42:06.406Z,94699.38
2023-03-26T19:44:33.608Z,94702.03
2023-03-26T19:47:07.599Z,94715.81
2023-03-26T19:49:54.670Z,94704.25
2023-03-26T19:52:32.550Z,94702.53
2023-03-26T19:55:22.450Z,94701.06
2023-03-26T19:57:49.199Z,94705.88
2023-03-26T20:00:16.085Z,94694.25
2023-03-26T20:02:46.227Z,94706.44
2023-03-26T20:05:26.027Z,94713.19
2023-03-26T20:07:56.906Z,94729.94
2023-03-26T20:10:24.278Z,94713.94
2023-03-26T20:12:50.769Z,94705.81
2023-03-26T20:15:24.444Z,94706.22
2023-03-26T20:17:55.149Z,94693.41
2023-03-26T20:20:24.868Z,94710.56
2023-03-26T20:22:53.849Z,94704.03
2023-03-26T20:25:46.292Z,94709.63
2023-03-26T20:28:12.752Z,94710.13
2023-03-26T20:30:39.450Z,94691.84
2023-03-26T20:33:12.159Z,94698.53
2023-03-26T20:35:41.143Z,94707.13
2023-03-26T20:38:09.560Z,94710.88
2023-03-26T20:40:36.774Z,94710.53
2023-03-26T20:43:03.291Z,94695.09
2023-03-26T20:45:29.931Z,94696.66
2023-03-26T20:47:57.208Z,94694.03
2023-03-26T20:50:24.329Z,94690.47
2023-03-26T20:52:51.083Z,94697.06
2023-03-26T20:55:21.274Z,94700.28
2023-03-26T20:57:48.839Z,94696.38
2023-03-26T21:00:22.339Z,94705.78
2023-03-26T21:02:54.774Z,94708.75
2023-03-26T21:05:27.033Z,94702.28
2023-03-26T21:07:56.094Z,94712.84
2023-03-26T21:10:25.928Z,94715.53
2023-03-26T21:12:56.531Z,94704.72
2023-03-26T21:15:23.981Z,94696.88
2023-03-26T21:17:52.079Z,94716.44
2023-03-26T21:20:19.597Z,94700.28
2023-03-26T21:23:06.168Z,94716.22
2023-03-26T21:25:52.926Z,94711.41
2023-03-26T21:28:42.042Z,94732.09
2023-03-26T21:31:21.610Z,94716.09
2023-03-26T21:33:49.381Z,94723.50
2023-03-26T21:36:18.080Z,94713.59
2023-03-26T21:38:45.464Z,94708.28
2023-03-26T21:41:24.105Z,94709.97
2023-03-26T21:43:51.340Z,94708.41
2023-03-26T21:46:18.166Z,94707.34
2023-03-26T21:48:44.887Z,94708.41
2023-03-26T21:51:14.634Z,94703.25
2023-03-26T21:53:42.417Z,94697.53
2023-03-26T21:56:36.721Z,94715.00
2023-03-26T21:59:27.193Z,94717.66
2023-03-26T22:02:02.174Z,94705.28
2023-03-26T22:04:39.024Z,94697.84
2023-03-26T22:07:16.390Z,94694.72
2023-03-26T22:09:44.203Z,94702.84
2023-03-26T22:12:11.471Z,94703.75
2023-03-26T22:14:38.636Z,94691.41
2023-03-26T22:17:05.463Z,94708.66
2023-03-26T22:19:31.960Z,94690.38
2023-03-26T22:21:59.977Z,94712.91
2023-03-26T22:24:26.999Z,94691.03
2023-03-26T22:26:53.928Z,94705.22
2023-03-26T22:29:20.489Z,94709.75
2023-03-26T22:31:47.035Z,94684.75
2023-03-26T22:34:13.725Z,94701.13
2023-03-26T22:36:40.462Z,94703.25
2023-03-26T22:39:07.197Z,94690.59
2023-03-26T22:41:33.640Z,94686.69
2023-03-26T22:44:09.275Z,94706.19
2023-03-26T22:46:47.291Z,94700.88
2023-03-26T22:49:13.758Z,94699.59
2023-03-26T22:51:40.295Z,94709.19
2023-03-26T22:54:07.579Z,94697.22
2023-03-26T22:56:34.048Z,94706.06
2023-03-26T22:59:00.509Z,94706.13
2023-03-26T23:01:27.091Z,94700.50
2023-03-26T23:03:54.554Z,94704.63
2023-03-26T23:06:21.609Z,94703.44
2023-03-26T23:08:48.244Z,94696.22
2023-03-26T23:11:17.237Z,94697.88
2023-03-26T23:13:44.772Z,94686.41
2023-03-26T23:16:12.249Z,94686.91
2023-03-26T23:18:39.120Z,94686.81
2023-03-26T23:21:11.970Z,94695.75
2023-03-26T23:23:39.534Z,94688.97
2023-03-26T23:26:06.899Z,94686.69
2023-03-26T23:28:34.703Z,94699.00
2023-03-26T23:31:04.271Z,94688.06
2023-03-26T23:33:34.156Z,94687.47
2023-03-26T23:36:04.241Z,94683.31
2023-03-26T23:38:43.372Z,94690.13
2023-03-26T23:41:15.119Z,94685.94
2023-03-26T23:43:54.750Z,94685.69
2023-03-26T23:46:34.522Z,94683.41
2023-03-26T23:49:04.517Z,94675.53
2023-03-26T23:51:32.064Z,94689.91
2023-03-26T23:53:59.736Z,94672.97
2023-03-26T23:56:27.664Z,94666.97
2023-03-26T23:58:55.139Z,94667.53
